createdAt,value
2022-09-16T00:00:50.881Z,13.8
2022-09-16T00:02:50.010Z,13.8
2022-09-16T00:04:50.511Z,13.8
2022-09-16T00:06:50.025Z,13.8
2022-09-16T00:08:50.011Z,13.8
2022-09-16T00:10:50.812Z,13.8
2022-09-16T00:12:50.627Z,13.9
2022-09-16T00:14:50.524Z,13.9
2022-09-16T00:16:50.771Z,13.9
2022-09-16T00:18:50.703Z,13.9
2022-09-16T00:20:50.591Z,13.9
2022-09-16T00:22:50.371Z,13.9
2022-09-16T00:24:50.230Z,13.9
2022-09-16T00:26:50.530Z,13.9
2022-09-16T00:28:50.674Z,13.9
2022-09-16T00:30:50.829Z,13.9
2022-09-16T00:32:50.866Z,13.9
2022-09-16T00:34:50.377Z,13.9
2022-09-16T00:36:50.546Z,13.9
2022-09-16T00:38:50.741Z,13.9
2022-09-16T00:40:50.572Z,13.9
2022-09-16T00:42:50.521Z,13.9
2022-09-16T00:44:50.552Z,13.9
2022-09-16T00:46:50.846Z,13.9
2022-09-16T00:48:50.683Z,13.9
2022-09-16T00:50:50.578Z,13.9
2022-09-16T00:52:50.440Z,13.9
2022-09-16T00:54:50.415Z,13.8
2022-09-16T00:56:50.693Z,13.8
2022-09-16T00:58:50.529Z,13.8
2022-09-16T01:00:50.803Z,13.8
2022-09-16T01:02:49.934Z,13.8
2022-09-16T01:04:50.330Z,13.8
2022-09-16T01:06:50.447Z,13.8
2022-09-16T01:08:50.306Z,13.8
2022-09-16T01:10:50.341Z,13.8
2022-09-16T01:12:50.227Z,13.8
2022-09-16T01:14:50.209Z,13.8
2022-09-16T01:16:50.340Z,13.8
2022-09-16T01:18:50.332Z,13.8
2022-09-16T01:20:50.078Z,13.8
2022-09-16T01:22:50.023Z,13.8
2022-09-16T01:24:50.000Z,13.8
2022-09-16T01:26:50.281Z,13.8
2022-09-16T01:28:50.152Z,13.7
2022-09-16T01:30:50.213Z,13.7
2022-09-16T01:32:50.070Z,13.7
2022-09-16T01:34:50.436Z,13.7
2022-09-16T01:36:50.779Z,13.7
2022-09-16T01:38:50.751Z,13.7
2022-09-16T01:40:50.550Z,13.7
2022-09-16T01:42:50.303Z,13.7
2022-09-16T01:44:50.165Z,13.6
2022-09-16T01:46:50.738Z,13.6
2022-09-16T01:48:54.281Z,13.6
2022-09-16T01:50:50.170Z,13.6
2022-09-16T01:52:50.011Z,13.6
2022-09-16T01:54:50.006Z,13.6
2022-09-16T01:56:50.093Z,13.6
2022-09-16T01:58:50.820Z,13.6
2022-09-16T02:00:50.636Z,13.6
2022-09-16T02:02:50.854Z,13.6
2022-09-16T02:04:50.367Z,13.6
2022-09-16T02:06:50.703Z,13.6
2022-09-16T02:08:50.855Z,13.6
2022-09-16T02:10:50.761Z,13.6
2022-09-16T02:12:50.640Z,13.5
2022-09-16T02:14:50.758Z,13.5
2022-09-16T02:16:50.860Z,13.5
2022-09-16T02:18:50.715Z,13.5
2022-09-16T02:20:50.671Z,13.5
2022-09-16T02:22:50.315Z,13.5
2022-09-16T02:24:49.978Z,13.5
2022-09-16T02:26:50.057Z,13.5
2022-09-16T02:28:50.823Z,13.5
2022-09-16T02:30:50.884Z,13.4
2022-09-16T02:32:50.795Z,13.4
2022-09-16T02:34:50.317Z,13.4
2022-09-16T02:36:50.587Z,13.4
2022-09-16T02:38:50.548Z,13.4
2022-09-16T02:40:50.593Z,13.4
2022-09-16T02:42:50.421Z,13.4
2022-09-16T02:44:50.150Z,13.4
2022-09-16T02:46:50.615Z,13.4
2022-09-16T02:48:50.596Z,13.4
2022-09-16T02:50:50.403Z,13.4
2022-09-16T02:52:50.131Z,13.4
2022-09-16T02:54:49.962Z,13.4
2022-09-16T02:56:50.184Z,13.4
2022-09-16T02:58:50.004Z,13.4
2022-09-16T03:00:50.903Z,13.4
2022-09-16T03:02:51.045Z,13.4
2022-09-16T03:04:50.791Z,13.4
2022-09-16T03:06:49.926Z,13.4
2022-09-16T03:08:50.913Z,13.4
2022-09-16T03:10:50.812Z,13.4
2022-09-16T03:12:50.809Z,13.4
2022-09-16T03:14:50.766Z,13.4
2022-09-16T03:16:50.054Z,13.3
2022-09-16T03:18:50.826Z,13.3
2022-09-16T03:20:50.831Z,13.3
2022-09-16T03:22:50.664Z,13.3
2022-09-16T03:24:50.579Z,13.3
2022-09-16T03:26:50.891Z,13.3
2022-09-16T03:28:50.594Z,13.3
2022-09-16T03:30:50.756Z,13.3
2022-09-16T03:32:50.693Z,13.3
2022-09-16T03:34:50.007Z,13.3
2022-09-16T03:36:49.968Z,13.3
2022-09-16T03:38:50.684Z,13.2
2022-09-16T03:40:50.457Z,13.3
2022-09-16T03:42:50.245Z,13.3
2022-09-16T03:44:50.069Z,13.3
2022-09-16T03:46:50.144Z,13.3
2022-09-16T03:48:49.981Z,13.2
2022-09-16T03:50:49.911Z,13.2
2022-09-16T03:52:50.670Z,13.2
2022-09-16T03:54:50.514Z,13.2
2022-09-16T03:56:50.655Z,13.2
2022-09-16T03:58:50.561Z,13.2
2022-09-16T04:00:50.658Z,13.2
2022-09-16T04:02:50.854Z,13.2
2022-09-16T04:04:50.525Z,13.2
2022-09-16T04:06:50.655Z,13.2
2022-09-16T04:08:50.498Z,13.2
2022-09-16T04:10:50.324Z,13.2
2022-09-16T04:12:50.060Z,13.2
2022-09-16T04:14:49.909Z,13.2
2022-09-16T04:16:50.049Z,13.2
2022-09-16T04:18:49.994Z,13.2
2022-09-16T04:20:49.884Z,13.2
2022-09-16T04:22:50.721Z,13.2
2022-09-16T04:24:50.670Z,13.2
2022-09-16T04:26:50.087Z,13.2
2022-09-16T04:28:50.820Z,13.2
2022-09-16T04:30:51.006Z,13.2
2022-09-16T04:32:50.036Z,13.1
2022-09-16T04:34:50.352Z,13.1
2022-09-16T04:36:50.470Z,13.2
2022-09-16T04:38:50.528Z,13.2
2022-09-16T04:40:50.609Z,13.1
2022-09-16T04:42:50.555Z,13.1
2022-09-16T04:44:50.556Z,13.1
2022-09-16T04:46:49.992Z,13.1
2022-09-16T04:48:50.026Z,13.1
2022-09-16T04:50:50.825Z,13.1
2022-09-16T04:52:50.750Z,13.1
2022-09-16T04:54:50.751Z,13.1
2022-09-16T04:56:50.139Z,13.1
2022-09-16T04:58:50.091Z,13.1
2022-09-16T05:00:49.958Z,13.1
2022-09-16T05:02:50.778Z,13.1
2022-09-16T05:04:50.100Z,13.1
2022-09-16T05:06:50.451Z,13.1
2022-09-16T05:08:50.357Z,13.1
2022-09-16T05:10:50.262Z,13.1
2022-09-16T05:12:50.166Z,13.1
2022-09-16T05:14:49.962Z,13.1
2022-09-16T05:16:50.237Z,13.1
2022-09-16T05:18:50.292Z,13.1
2022-09-16T05:20:50.340Z,13.1
2022-09-16T05:22:50.522Z,13.1
2022-09-16T05:24:50.561Z,13.1
2022-09-16T05:26:50.808Z,13.1
2022-09-16T05:28:50.604Z,13.1
2022-09-16T05:30:50.850Z,13.2
2022-09-16T05:32:50.850Z,13.2
2022-09-16T05:34:50.089Z,13.2
2022-09-16T05:36:50.305Z,13.2
2022-09-16T05:39:24.411Z,13.2
2022-09-16T05:40:50.296Z,13.2
2022-09-16T05:42:50.059Z,13.2
2022-09-16T05:44:49.960Z,13.2
2022-09-16T05:46:50.095Z,13.2
2022-09-16T05:48:50.002Z,13.2
2022-09-16T05:50:49.945Z,13.2
2022-09-16T05:52:50.800Z,13.1
2022-09-16T05:54:50.012Z,13.1
2022-09-16T05:56:50.313Z,13.2
2022-09-16T05:58:50.076Z,13.2
2022-09-16T06:00:49.934Z,13.2
2022-09-16T06:02:50.254Z,13.2
2022-09-16T06:04:50.695Z,13.2
2022-09-16T06:06:50.729Z,13.2
2022-09-16T06:08:50.012Z,13.2
2022-09-16T06:10:49.915Z,13.2
2022-09-16T06:12:50.841Z,13.3
2022-09-16T06:14:50.676Z,13.3
2022-09-16T06:16:50.744Z,13.3
2022-09-16T06:18:50.694Z,13.3
2022-09-16T06:20:50.819Z,13.3
2022-09-16T06:22:50.627Z,13.3
2022-09-16T06:24:50.616Z,13.3
2022-09-16T06:26:50.896Z,13.3
2022-09-16T06:28:50.849Z,13.3
2022-09-16T06:30:50.792Z,13.3
2022-09-16T06:32:50.752Z,13.3
2022-09-16T06:34:50.309Z,13.3
2022-09-16T06:36:50.443Z,13.3
2022-09-16T06:38:50.567Z,13.3
2022-09-16T06:40:50.334Z,13.3
2022-09-16T06:42:50.136Z,13.3
2022-09-16T06:44:50.012Z,13.3
2022-09-16T06:46:50.229Z,13.3
2022-09-16T06:48:50.130Z,13.4
2022-09-16T06:50:49.953Z,13.4
2022-09-16T06:52:50.769Z,13.4
2022-09-16T06:54:50.583Z,13.4
2022-09-16T06:56:49.931Z,13.4
2022-09-16T06:58:50.788Z,13.4
2022-09-16T07:00:50.918Z,13.4
2022-09-16T07:02:50.837Z,13.4
2022-09-16T07:04:50.375Z,13.4
2022-09-16T07:07:11.106Z,13.4
2022-09-16T07:08:50.140Z,13.4
2022-09-16T07:10:49.951Z,13.4
2022-09-16T07:12:50.765Z,13.4
2022-09-16T07:14:50.715Z,13.5
2022-09-16T07:16:50.189Z,13.5
2022-09-16T07:18:50.046Z,13.6
2022-09-16T07:20:50.796Z,13.6
2022-09-16T07:22:50.124Z,13.6
2022-09-16T07:24:50.153Z,13.7
2022-09-16T07:26:50.400Z,13.7
2022-09-16T07:28:50.099Z,13.7
2022-09-16T07:30:50.385Z,13.7
2022-09-16T07:32:50.502Z,13.7
2022-09-16T07:34:50.019Z,13.8
2022-09-16T07:36:50.345Z,13.8
2022-09-16T07:38:50.303Z,13.8
2022-09-16T07:40:50.441Z,13.8
2022-09-16T07:42:50.242Z,13.9
2022-09-16T07:44:50.028Z,13.9
2022-09-16T07:46:50.290Z,14.0
2022-09-16T07:48:50.385Z,14.0
2022-09-16T07:50:50.259Z,14.1
2022-09-16T07:52:49.944Z,14.1
2022-09-16T07:54:50.709Z,14.2
2022-09-16T07:56:50.864Z,14.2
2022-09-16T07:58:50.617Z,14.2
2022-09-16T08:00:50.481Z,14.3
2022-09-16T08:02:50.785Z,14.3
2022-09-16T08:04:50.345Z,14.4
2022-09-16T08:06:50.819Z,14.4
2022-09-16T08:08:50.673Z,14.4
2022-09-16T08:10:50.703Z,14.4
2022-09-16T08:12:50.614Z,14.4
2022-09-16T08:14:50.513Z,14.4
2022-09-16T08:16:51.040Z,14.4
2022-09-16T08:18:50.300Z,14.4
2022-09-16T08:20:50.106Z,14.4
2022-09-16T08:22:58.320Z,14.5
2022-09-16T08:24:50.209Z,14.5
2022-09-16T08:26:50.653Z,14.5
2022-09-16T08:29:10.956Z,14.5
2022-09-16T08:30:53.697Z,14.5
2022-09-16T08:32:50.725Z,14.5
2022-09-16T08:34:50.378Z,14.5
2022-09-16T08:36:50.673Z,14.6
2022-09-16T08:38:50.591Z,14.6
2022-09-16T08:40:50.476Z,14.6
2022-09-16T08:42:50.346Z,14.6
2022-09-16T08:44:50.172Z,14.6
2022-09-16T08:46:50.335Z,14.6
2022-09-16T08:48:50.093Z,14.7
2022-09-16T08:50:50.269Z,14.7
2022-09-16T08:52:50.108Z,14.7
2022-09-16T08:54:50.148Z,14.7
2022-09-16T08:56:50.472Z,14.8
2022-09-16T08:58:50.393Z,14.8
2022-09-16T09:00:50.769Z,14.8
2022-09-16T09:02:51.304Z,14.8
2022-09-16T09:04:50.793Z,14.8
2022-09-16T09:06:50.173Z,14.9
2022-09-16T09:08:50.874Z,14.9
2022-09-16T09:10:50.867Z,15.0
2022-09-16T09:12:55.081Z,15.0
2022-09-16T09:14:50.051Z,15.0
2022-09-16T09:16:50.689Z,15.1
2022-09-16T09:18:50.009Z,15.1
2022-09-16T09:20:50.818Z,15.2
2022-09-16T09:22:50.770Z,15.2
2022-09-16T09:24:57.355Z,15.2
2022-09-16T09:26:50.556Z,15.2
2022-09-16T09:28:50.532Z,15.3
2022-09-16T09:30:50.315Z,15.3
2022-09-16T09:32:50.557Z,15.4
2022-09-16T09:34:50.846Z,15.4
2022-09-16T09:36:49.979Z,15.4
2022-09-16T09:38:50.008Z,15.4
2022-09-16T09:40:50.773Z,15.4
2022-09-16T09:42:50.816Z,15.4
2022-09-16T09:44:50.685Z,15.4
2022-09-16T09:46:50.925Z,15.5
2022-09-16T09:48:50.797Z,15.5
2022-09-16T09:50:50.551Z,15.5
2022-09-16T09:52:50.420Z,15.5
2022-09-16T09:54:50.267Z,15.6
2022-09-16T09:56:50.659Z,15.6
2022-09-16T09:58:50.586Z,15.6
2022-09-16T10:00:50.712Z,15.6
2022-09-16T10:02:50.760Z,15.8
2022-09-16T10:04:50.267Z,15.8
2022-09-16T10:06:50.491Z,15.8
2022-09-16T10:08:50.565Z,15.8
2022-09-16T10:10:50.505Z,15.8
2022-09-16T10:12:50.787Z,15.9
2022-09-16T10:14:50.733Z,15.9
2022-09-16T10:16:50.378Z,15.8
2022-09-16T10:18:50.397Z,15.9
2022-09-16T10:20:50.265Z,15.9
2022-09-16T10:22:50.280Z,15.9
2022-09-16T10:24:50.191Z,15.9
2022-09-16T10:26:50.497Z,15.9
2022-09-16T10:28:50.375Z,16.0
2022-09-16T10:30:50.328Z,16.0
2022-09-16T10:32:50.160Z,16.0
2022-09-16T10:34:50.526Z,16.1
2022-09-16T10:36:50.875Z,16.1
2022-09-16T10:38:50.516Z,16.1
2022-09-16T10:40:50.463Z,16.1
2022-09-16T10:42:50.294Z,16.1
2022-09-16T10:44:50.413Z,16.1
2022-09-16T10:46:50.635Z,16.1
2022-09-16T10:48:50.662Z,16.2
2022-09-16T10:50:50.580Z,16.2
2022-09-16T10:52:50.351Z,16.2
2022-09-16T10:54:50.447Z,16.2
2022-09-16T10:56:50.111Z,16.2
2022-09-16T10:58:50.214Z,16.2
2022-09-16T11:00:50.395Z,16.2
2022-09-16T11:02:50.411Z,16.3
2022-09-16T11:04:50.868Z,16.3
2022-09-16T11:06:50.080Z,16.3
2022-09-16T11:08:50.027Z,16.3
2022-09-16T11:10:50.828Z,16.3
2022-09-16T11:12:50.651Z,16.2
2022-09-16T11:14:50.480Z,16.2
2022-09-16T11:16:50.772Z,16.2
2022-09-16T11:18:53.434Z,16.2
2022-09-16T11:20:50.432Z,16.1
2022-09-16T11:22:50.381Z,16.0
2022-09-16T11:24:50.208Z,15.9
2022-09-16T11:26:50.441Z,15.9
2022-09-16T11:28:50.137Z,15.9
2022-09-16T11:30:50.911Z,15.8
2022-09-16T11:32:51.212Z,15.7
2022-09-16T11:34:50.023Z,15.7
2022-09-16T11:36:50.210Z,15.7
2022-09-16T11:38:50.026Z,15.6
2022-09-16T11:40:50.966Z,15.5
2022-09-16T11:42:50.904Z,15.4
2022-09-16T11:44:50.936Z,15.4
2022-09-16T11:46:50.387Z,15.4
2022-09-16T11:48:50.293Z,15.4
2022-09-16T11:50:50.247Z,15.4
2022-09-16T11:52:52.001Z,15.4
2022-09-16T11:54:50.658Z,15.4
2022-09-16T11:56:50.764Z,15.3
2022-09-16T11:58:50.658Z,15.3
2022-09-16T12:00:50.682Z,15.3
2022-09-16T12:02:50.938Z,15.3
2022-09-16T12:04:50.378Z,15.3
2022-09-16T12:06:50.608Z,15.3
2022-09-16T12:08:50.580Z,15.2
2022-09-16T12:10:50.565Z,15.3
2022-09-16T12:12:50.476Z,15.3
2022-09-16T12:14:50.500Z,15.3
2022-09-16T12:16:50.811Z,15.3
2022-09-16T12:18:50.790Z,15.3
2022-09-16T12:20:50.677Z,15.3
2022-09-16T12:22:50.714Z,15.3
2022-09-16T12:24:50.675Z,15.3
2022-09-16T12:26:49.942Z,15.3
2022-09-16T12:28:49.910Z,15.3
2022-09-16T12:30:50.926Z,15.2
2022-09-16T12:32:49.958Z,15.2
2022-09-16T12:34:50.525Z,15.2
2022-09-16T12:36:50.730Z,15.2
2022-09-16T12:38:50.701Z,15.2
2022-09-16T12:40:50.752Z,15.1
2022-09-16T12:42:50.774Z,15.1
2022-09-16T12:44:50.729Z,15.1
2022-09-16T12:46:50.365Z,15.2
2022-09-16T12:48:50.422Z,15.2
2022-09-16T12:50:50.429Z,15.3
2022-09-16T12:52:50.201Z,15.3
2022-09-16T12:55:09.445Z,15.3
2022-09-16T12:56:50.389Z,15.4
2022-09-16T12:58:50.457Z,15.4
2022-09-16T13:00:50.468Z,15.4
2022-09-16T13:02:50.750Z,15.4
2022-09-16T13:04:50.203Z,15.4
2022-09-16T13:06:50.561Z,15.3
2022-09-16T13:08:50.520Z,15.3
2022-09-16T13:12:05.409Z,15.3
2022-09-16T13:12:50.399Z,15.2
2022-09-16T13:14:50.368Z,15.2
2022-09-16T13:16:50.682Z,15.2
2022-09-16T13:18:50.484Z,15.2
2022-09-16T13:20:50.170Z,15.1
2022-09-16T13:22:50.086Z,15.0
2022-09-16T13:24:50.156Z,15.0
2022-09-16T13:26:50.380Z,15.0
2022-09-16T13:28:50.418Z,14.9
2022-09-16T13:30:50.617Z,14.9
2022-09-16T13:32:50.707Z,14.8
2022-09-16T13:34:50.119Z,14.7
2022-09-16T13:36:50.394Z,14.7
2022-09-16T13:38:50.266Z,14.7
2022-09-16T13:40:50.257Z,14.6
2022-09-16T13:42:50.397Z,14.6
2022-09-16T13:44:50.031Z,14.6
2022-09-16T13:46:50.276Z,14.6
2022-09-16T13:48:50.311Z,14.6
2022-09-16T13:50:50.288Z,14.6
2022-09-16T13:52:50.108Z,14.5
2022-09-16T13:55:12.447Z,14.5
2022-09-16T13:56:50.846Z,14.5
2022-09-16T13:58:50.816Z,14.6
2022-09-16T14:00:50.636Z,14.7
2022-09-16T14:02:51.266Z,14.8
2022-09-16T14:04:50.840Z,14.8
2022-09-16T14:06:50.081Z,14.8
2022-09-16T14:08:52.188Z,14.9
2022-09-16T14:10:50.046Z,15.0
2022-09-16T14:12:50.008Z,15.0
2022-09-16T14:14:50.785Z,15.2
2022-09-16T14:16:50.119Z,15.2
2022-09-16T14:18:50.028Z,15.3
2022-09-16T14:20:50.024Z,15.4
2022-09-16T14:22:50.859Z,15.5
2022-09-16T14:25:29.258Z,15.6
2022-09-16T14:26:50.058Z,15.6
2022-09-16T14:28:50.295Z,15.7
2022-09-16T14:30:50.653Z,15.8
2022-09-16T14:32:50.646Z,15.9
2022-09-16T14:34:50.160Z,16.1
2022-09-16T14:36:50.343Z,16.1
2022-09-16T14:38:50.324Z,16.3
2022-09-16T14:40:50.495Z,16.4
2022-09-16T14:42:50.389Z,16.6
2022-09-16T14:44:50.198Z,16.6
2022-09-16T14:46:50.536Z,16.6
2022-09-16T14:48:50.495Z,16.6
2022-09-16T14:50:50.454Z,16.6
2022-09-16T14:52:50.187Z,16.6
2022-09-16T14:54:50.130Z,16.6
2022-09-16T14:56:50.379Z,16.6
2022-09-16T14:58:50.183Z,16.6
2022-09-16T15:00:49.983Z,16.6
2022-09-16T15:02:50.993Z,16.6
2022-09-16T15:04:50.446Z,16.6
2022-09-16T15:06:50.804Z,16.5
2022-09-16T15:08:50.717Z,16.5
2022-09-16T15:11:00.838Z,16.4
2022-09-16T15:12:50.701Z,16.4
2022-09-16T15:14:50.421Z,16.4
2022-09-16T15:16:50.536Z,16.4
2022-09-16T15:18:50.548Z,16.4
2022-09-16T15:20:50.577Z,16.4
2022-09-16T15:22:50.530Z,16.4
2022-09-16T15:24:50.437Z,16.3
2022-09-16T15:26:50.593Z,16.4
2022-09-16T15:28:50.609Z,16.3
2022-09-16T15:30:50.708Z,16.3
2022-09-16T15:32:50.852Z,16.3
2022-09-16T15:34:50.314Z,16.3
2022-09-16T15:36:50.545Z,16.3
2022-09-16T15:38:50.633Z,16.2
2022-09-16T15:40:50.503Z,16.2
2022-09-16T15:42:50.170Z,16.2
2022-09-16T15:44:50.060Z,16.2
2022-09-16T15:46:50.247Z,16.2
2022-09-16T15:48:50.163Z,16.1
2022-09-16T15:50:50.194Z,16.1
2022-09-16T15:52:50.205Z,16.0
2022-09-16T15:54:50.262Z,15.9
2022-09-16T15:56:50.544Z,15.9
2022-09-16T15:58:50.353Z,15.9
2022-09-16T16:00:50.421Z,15.9
2022-09-16T16:02:50.506Z,15.8
2022-09-16T16:04:49.994Z,15.8
2022-09-16T16:06:50.340Z,15.8
2022-09-16T16:08:50.059Z,15.8
2022-09-16T16:10:50.017Z,15.8
2022-09-16T16:12:50.887Z,15.8
2022-09-16T16:14:49.915Z,15.8
2022-09-16T16:17:14.813Z,15.7
2022-09-16T16:18:50.094Z,15.7
2022-09-16T16:20:50.156Z,15.6
2022-09-16T16:22:51.746Z,15.1
2022-09-16T16:24:50.165Z,14.6
2022-09-16T16:26:57.222Z,14.6
2022-09-16T16:28:50.080Z,14.4
2022-09-16T16:30:50.330Z,14.1
2022-09-16T16:32:50.506Z,13.8
2022-09-16T16:34:50.640Z,13.6
2022-09-16T16:36:50.860Z,13.6
2022-09-16T16:38:50.874Z,13.5
2022-09-16T16:40:50.608Z,13.4
2022-09-16T16:42:50.610Z,13.3
2022-09-16T16:44:50.469Z,13.3
2022-09-16T16:46:50.790Z,13.2
2022-09-16T16:48:50.677Z,13.2
2022-09-16T16:50:50.487Z,13.1
2022-09-16T16:52:50.408Z,13.0
2022-09-16T16:54:50.313Z,13.0
2022-09-16T16:56:50.397Z,13.0
2022-09-16T16:58:50.128Z,13.0
2022-09-16T17:00:50.872Z,12.9
2022-09-16T17:02:51.188Z,12.9
2022-09-16T17:04:50.821Z,12.9
2022-09-16T17:07:26.903Z,12.9
2022-09-16T17:08:50.594Z,12.8
2022-09-16T17:10:50.696Z,12.8
2022-09-16T17:12:50.636Z,12.8
2022-09-16T17:14:50.427Z,12.8
2022-09-16T17:16:50.818Z,12.8
2022-09-16T17:18:50.736Z,12.7
2022-09-16T17:20:50.825Z,12.6
2022-09-16T17:22:50.658Z,12.6
2022-09-16T17:24:50.530Z,12.6
2022-09-16T17:26:50.842Z,12.6
2022-09-16T17:28:50.756Z,12.5
2022-09-16T17:30:50.906Z,12.5
2022-09-16T17:32:49.996Z,12.4
2022-09-16T17:34:50.322Z,12.4
2022-09-16T17:36:50.805Z,12.4
2022-09-16T17:38:50.642Z,12.3
2022-09-16T17:40:50.520Z,12.3
2022-09-16T17:42:50.391Z,12.3
2022-09-16T17:44:50.444Z,12.2
2022-09-16T17:46:50.702Z,12.2
2022-09-16T17:48:50.679Z,12.2
2022-09-16T17:50:50.623Z,12.2
2022-09-16T17:52:50.428Z,12.2
2022-09-16T17:54:50.365Z,12.2
2022-09-16T17:56:50.596Z,12.2
2022-09-16T17:58:50.454Z,12.1
2022-09-16T18:00:50.263Z,12.1
2022-09-16T18:02:50.477Z,12.1
2022-09-16T18:04:51.096Z,12.1
2022-09-16T18:06:50.229Z,12.1
2022-09-16T18:08:50.141Z,12.0
2022-09-16T18:10:49.974Z,12.0
2022-09-16T18:12:50.060Z,12.0
2022-09-16T18:14:49.963Z,12.0
2022-09-16T18:16:50.487Z,12.0
2022-09-16T18:18:50.505Z,12.0
2022-09-16T18:20:50.377Z,11.9
2022-09-16T18:22:50.397Z,11.9
2022-09-16T18:24:50.317Z,11.9
2022-09-16T18:26:50.385Z,11.8
2022-09-16T18:29:12.135Z,11.8
2022-09-16T18:30:51.001Z,11.8
2022-09-16T18:32:50.167Z,11.8
2022-09-16T18:34:50.586Z,11.8
2022-09-16T18:36:50.685Z,11.8
2022-09-16T18:38:50.615Z,11.8
2022-09-16T18:40:50.474Z,11.8
2022-09-16T18:42:50.642Z,11.8
2022-09-16T18:44:50.622Z,11.8
2022-09-16T18:46:50.789Z,11.8
2022-09-16T18:48:50.620Z,11.8
2022-09-16T18:50:50.427Z,11.8
2022-09-16T18:52:50.409Z,11.8
2022-09-16T18:54:50.341Z,11.8
2022-09-16T18:56:50.632Z,11.8
2022-09-16T18:59:22.367Z,11.8
2022-09-16T19:00:51.108Z,11.7
2022-09-16T19:02:50.701Z,11.7
2022-09-16T19:04:50.866Z,11.7
2022-09-16T19:06:50.024Z,11.6
2022-09-16T19:08:50.801Z,11.6
2022-09-16T19:10:50.808Z,11.6
2022-09-16T19:12:50.559Z,11.6
2022-09-16T19:14:50.345Z,11.6
2022-09-16T19:16:50.822Z,11.5
2022-09-16T19:18:50.719Z,11.5
2022-09-16T19:20:50.770Z,11.5
2022-09-16T19:22:50.661Z,11.4
2022-09-16T19:24:50.472Z,11.4
2022-09-16T19:26:50.698Z,11.4
2022-09-16T19:28:50.642Z,11.4
2022-09-16T19:30:50.538Z,11.4
2022-09-16T19:32:50.717Z,11.4
2022-09-16T19:34:50.379Z,11.3
2022-09-16T19:36:50.876Z,11.3
2022-09-16T19:38:50.723Z,11.3
2022-09-16T19:40:50.588Z,11.3
2022-09-16T19:42:50.536Z,11.3
2022-09-16T19:44:50.498Z,11.3
2022-09-16T19:46:50.883Z,11.2
2022-09-16T19:48:50.906Z,11.2
2022-09-16T19:50:50.658Z,11.2
2022-09-16T19:52:50.515Z,11.2
2022-09-16T19:54:50.400Z,11.2
2022-09-16T19:56:51.567Z,11.2
2022-09-16T19:58:50.629Z,11.1
2022-09-16T20:00:56.996Z,11.1
2022-09-16T20:02:51.246Z,11.1
2022-09-16T20:04:50.743Z,11.0
2022-09-16T20:06:50.234Z,11.0
2022-09-16T20:08:50.382Z,11.0
2022-09-16T20:10:50.291Z,11.0
2022-09-16T20:12:50.232Z,11.0
2022-09-16T20:14:50.152Z,11.0
2022-09-16T20:16:50.847Z,11.0
2022-09-16T20:18:49.977Z,11.0
2022-09-16T20:20:50.629Z,11.0
2022-09-16T20:22:50.530Z,10.9
2022-09-16T20:25:23.241Z,10.9
2022-09-16T20:26:50.878Z,10.9
2022-09-16T20:28:50.803Z,10.9
2022-09-16T20:30:50.565Z,10.8
2022-09-16T20:32:50.466Z,10.8
2022-09-16T20:34:50.692Z,10.8
2022-09-16T20:36:50.791Z,10.8
2022-09-16T20:38:50.763Z,10.7
2022-09-16T20:40:50.746Z,10.7
2022-09-16T20:42:50.724Z,10.7
2022-09-16T20:44:50.654Z,10.7
2022-09-16T20:46:50.709Z,10.7
2022-09-16T20:48:50.533Z,10.6
2022-09-16T20:50:50.484Z,10.6
2022-09-16T20:52:50.364Z,10.6
2022-09-16T20:54:50.073Z,10.6
2022-09-16T20:56:50.328Z,10.6
2022-09-16T20:58:50.128Z,10.6
2022-09-16T21:00:51.114Z,10.5
2022-09-16T21:02:50.245Z,10.5
2022-09-16T21:04:50.692Z,10.5
2022-09-16T21:06:50.115Z,10.4
2022-09-16T21:08:50.180Z,10.4
2022-09-16T21:10:50.115Z,10.4
2022-09-16T21:12:50.094Z,10.4
2022-09-16T21:14:50.841Z,10.3
2022-09-16T21:16:50.285Z,10.3
2022-09-16T21:18:50.214Z,10.3
2022-09-16T21:20:49.994Z,10.3
2022-09-16T21:22:50.719Z,10.2
2022-09-16T21:24:50.459Z,10.2
2022-09-16T21:26:50.482Z,10.2
2022-09-16T21:28:50.252Z,10.2
2022-09-16T21:30:50.285Z,10.2
2022-09-16T21:32:50.228Z,10.2
2022-09-16T21:34:50.701Z,10.1
2022-09-16T21:36:50.848Z,10.1
2022-09-16T21:38:50.874Z,10.1
2022-09-16T21:40:50.742Z,10.1
2022-09-16T21:42:50.555Z,10.1
2022-09-16T21:44:50.403Z,10.0
2022-09-16T21:46:51.082Z,10.0
2022-09-16T21:48:50.440Z,10.0
2022-09-16T21:50:50.319Z,10.0
2022-09-16T21:52:50.138Z,10.0
2022-09-16T21:54:50.895Z,10.0
2022-09-16T21:56:50.065Z,10.0
2022-09-16T21:58:50.007Z,10.0
2022-09-16T22:00:51.139Z,10.0
2022-09-16T22:02:50.446Z,10.0
2022-09-16T22:04:50.187Z,9.9
2022-09-16T22:06:50.336Z,9.9
2022-09-16T22:08:50.328Z,9.9
2022-09-16T22:10:50.142Z,9.9
2022-09-16T22:12:50.182Z,9.9
2022-09-16T22:14:50.827Z,9.8
2022-09-16T22:16:50.141Z,9.8
2022-09-16T22:18:49.951Z,9.8
2022-09-16T22:20:50.731Z,9.8
2022-09-16T22:22:50.523Z,9.8
2022-09-16T22:24:50.255Z,9.8
2022-09-16T22:26:50.625Z,9.8
2022-09-16T22:28:50.547Z,9.8
2022-09-16T22:30:50.417Z,9.8
2022-09-16T22:32:50.314Z,9.8
2022-09-16T22:34:50.811Z,9.8
2022-09-16T22:36:49.947Z,9.7
2022-09-16T22:38:50.751Z,9.7
2022-09-16T22:40:50.795Z,9.7
2022-09-16T22:42:50.781Z,9.7
2022-09-16T22:44:50.741Z,9.7
2022-09-16T22:46:51.189Z,9.6
2022-09-16T22:48:50.516Z,9.6
2022-09-16T22:50:50.355Z,9.6
2022-09-16T22:52:50.049Z,9.6
2022-09-16T22:54:50.058Z,9.6
2022-09-16T22:56:50.320Z,9.6
2022-09-16T22:58:50.151Z,9.6
2022-09-16T23:00:50.275Z,9.5
2022-09-16T23:02:50.242Z,9.5
2022-09-16T23:04:50.754Z,9.5
2022-09-16T23:06:50.782Z,9.5
2022-09-16T23:08:50.569Z,9.5
2022-09-16T23:10:50.417Z,9.5
2022-09-16T23:12:50.383Z,9.4
2022-09-16T23:14:50.096Z,9.4
2022-09-16T23:16:50.319Z,9.4
2022-09-16T23:18:50.215Z,9.4
2022-09-16T23:20:50.097Z,9.3
2022-09-16T23:22:50.016Z,9.3
2022-09-16T23:24:50.790Z,9.3
2022-09-16T23:26:50.776Z,9.3
2022-09-16T23:28:50.553Z,9.3
2022-09-16T23:30:50.731Z,9.3
2022-09-16T23:32:50.559Z,9.3
2022-09-16T23:34:50.833Z,9.3
2022-09-16T23:36:50.277Z,9.2
2022-09-16T23:38:50.135Z,9.2
2022-09-16T23:40:50.876Z,9.2
2022-09-16T23:42:50.765Z,9.2
2022-09-16T23:44:50.661Z,9.2
2022-09-16T23:46:51.153Z,9.1
2022-09-16T23:48:50.253Z,9.1
2022-09-16T23:50:50.182Z,9.1
2022-09-16T23:52:50.107Z,9.1
2022-09-16T23:54:49.930Z,9.1
2022-09-16T23:56:50.030Z,9.0
2022-09-16T23:58:50.764Z,9.0
